sensor_id;sensor_type;location;lat;lon;timestamp;P1;durP1;ratioP1;P2;durP2;ratioP2
7497;SDS011;3790;48.806;9.140;2023-04-15T00:04:30;3.33;;;1.50;;
7497;SDS011;3790;48.806;9.140;2023-04-15T00:09:32;4.43;;;1.90;;
7497;SDS011;3790;48.806;9.140;2023-04-15T00:14:33;3.17;;;1.50;;
7497;SDS011;3790;48.806;9.140;2023-04-15T00:19:35;3.23;;;1.40;;
7497;SDS011;3790;48.806;9.140;2023-04-15T00:24:36;3.00;;;1.30;;
7497;SDS011;3790;48.806;9.140;2023-04-15T00:29:37;1.80;;;1.17;;
7497;SDS011;3790;48.806;9.140;2023-04-15T00:34:38;3.87;;;1.77;;
7497;SDS011;3790;48.806;9.140;2023-04-15T00:39:38;2.30;;;1.30;;
7497;SDS011;3790;48.806;9.140;2023-04-15T00:44:39;2.90;;;1.40;;
7497;SDS011;3790;48.806;9.140;2023-04-15T00:49:39;3.63;;;1.60;;
7497;SDS011;3790;48.806;9.140;2023-04-15T00:54:40;2.87;;;1.53;;
7497;SDS011;3790;48.806;9.140;2023-04-15T00:59:40;2.63;;;1.33;;
7497;SDS011;3790;48.806;9.140;2023-04-15T01:04:41;3.00;;;1.40;;
7497;SDS011;3790;48.806;9.140;2023-04-15T01:09:42;4.97;;;1.70;;
7497;SDS011;3790;48.806;9.140;2023-04-15T01:14:43;3.50;;;1.37;;
7497;SDS011;3790;48.806;9.140;2023-04-15T01:19:44;3.40;;;1.63;;
7497;SDS011;3790;48.806;9.140;2023-04-15T01:30:05;3.53;;;1.70;;
7497;SDS011;3790;48.806;9.140;2023-04-15T01:35:07;3.50;;;1.90;;
7497;SDS011;3790;48.806;9.140;2023-04-15T01:40:08;4.07;;;1.70;;
7497;SDS011;3790;48.806;9.140;2023-04-15T01:45:09;3.60;;;1.97;;
7497;SDS011;3790;48.806;9.140;2023-04-15T01:50:10;6.33;;;2.03;;
7497;SDS011;3790;48.806;9.140;2023-04-15T01:55:10;4.07;;;1.80;;
7497;SDS011;3790;48.806;9.140;2023-04-15T02:00:11;2.73;;;1.67;;
7497;SDS011;3790;48.806;9.140;2023-04-15T02:05:12;3.40;;;1.93;;
7497;SDS011;3790;48.806;9.140;2023-04-15T02:10:13;2.80;;;1.60;;
7497;SDS011;3790;48.806;9.140;2023-04-15T02:15:15;3.73;;;1.80;;
7497;SDS011;3790;48.806;9.140;2023-04-15T02:20:17;4.70;;;2.03;;
7497;SDS011;3790;48.806;9.140;2023-04-15T02:25:18;5.00;;;2.23;;
7497;SDS011;3790;48.806;9.140;2023-04-15T02:30:19;4.00;;;1.80;;
7497;SDS011;3790;48.806;9.140;2023-04-15T02:35:22;3.37;;;2.23;;
7497;SDS011;3790;48.806;9.140;2023-04-15T02:40:24;5.63;;;2.67;;
7497;SDS011;3790;48.806;9.140;2023-04-15T02:45:26;5.83;;;2.83;;
7497;SDS011;3790;48.806;9.140;2023-04-15T02:50:27;5.10;;;2.60;;
7497;SDS011;3790;48.806;9.140;2023-04-15T02:55:27;5.20;;;2.20;;
7497;SDS011;3790;48.806;9.140;2023-04-15T03:00:28;5.27;;;2.33;;
7497;SDS011;3790;48.806;9.140;2023-04-15T03:05:28;9.47;;;2.30;;
7497;SDS011;3790;48.806;9.140;2023-04-15T03:10:29;4.60;;;2.30;;
7497;SDS011;3790;48.806;9.140;2023-04-15T03:15:31;3.57;;;2.00;;
7497;SDS011;3790;48.806;9.140;2023-04-15T03:20:32;3.93;;;1.87;;
7497;SDS011;3790;48.806;9.140;2023-04-15T03:25:32;4.10;;;1.70;;
7497;SDS011;3790;48.806;9.140;2023-04-15T03:30:33;4.97;;;1.90;;
7497;SDS011;3790;48.806;9.140;2023-04-15T03:35:33;3.73;;;1.83;;
7497;SDS011;3790;48.806;9.140;2023-04-15T03:40:34;5.03;;;1.80;;
7497;SDS011;3790;48.806;9.140;2023-04-15T03:45:35;4.20;;;1.97;;
7497;SDS011;3790;48.806;9.140;2023-04-15T03:50:35;3.17;;;1.73;;
7497;SDS011;3790;48.806;9.140;2023-04-15T03:55:36;4.00;;;1.80;;
7497;SDS011;3790;48.806;9.140;2023-04-15T04:00:37;3.67;;;1.57;;
7497;SDS011;3790;48.806;9.140;2023-04-15T04:05:38;5.97;;;2.10;;
7497;SDS011;3790;48.806;9.140;2023-04-15T04:10:40;2.50;;;1.60;;
7497;SDS011;3790;48.806;9.140;2023-04-15T04:15:41;11.47;;;2.90;;
7497;SDS011;3790;48.806;9.140;2023-04-15T04:20:42;3.67;;;1.90;;
7497;SDS011;3790;48.806;9.140;2023-04-15T04:25:42;6.00;;;2.67;;
7497;SDS011;3790;48.806;9.140;2023-04-15T04:30:43;4.77;;;2.33;;
7497;SDS011;3790;48.806;9.140;2023-04-15T04:35:43;4.00;;;2.17;;
7497;SDS011;3790;48.806;9.140;2023-04-15T04:40:44;3.20;;;2.00;;
7497;SDS011;3790;48.806;9.140;2023-04-15T04:45:44;4.30;;;2.27;;
7497;SDS011;3790;48.806;9.140;2023-04-15T04:50:45;3.50;;;2.00;;
7497;SDS011;3790;48.806;9.140;2023-04-15T04:55:46;6.10;;;2.53;;
7497;SDS011;3790;48.806;9.140;2023-04-15T05:00:46;3.43;;;2.07;;
7497;SDS011;3790;48.806;9.140;2023-04-15T05:05:47;3.73;;;1.93;;
7497;SDS011;3790;48.806;9.140;2023-04-15T05:10:48;3.37;;;2.13;;
7497;SDS011;3790;48.806;9.140;2023-04-15T05:15:48;3.10;;;1.97;;
7497;SDS011;3790;48.806;9.140;2023-04-15T05:20:49;5.10;;;2.20;;
7497;SDS011;3790;48.806;9.140;2023-04-15T05:25:49;3.57;;;2.00;;
7497;SDS011;3790;48.806;9.140;2023-04-15T05:30:50;4.30;;;2.73;;
7497;SDS011;3790;48.806;9.140;2023-04-15T05:35:50;4.83;;;2.30;;
7497;SDS011;3790;48.806;9.140;2023-04-15T05:40:51;5.60;;;2.47;;
7497;SDS011;3790;48.806;9.140;2023-04-15T05:45:51;4.17;;;2.20;;
7497;SDS011;3790;48.806;9.140;2023-04-15T05:50:52;4.03;;;2.17;;
7497;SDS011;3790;48.806;9.140;2023-04-15T05:55:53;3.60;;;2.20;;
7497;SDS011;3790;48.806;9.140;2023-04-15T06:00:53;3.13;;;1.93;;
7497;SDS011;3790;48.806;9.140;2023-04-15T06:05:54;4.47;;;2.13;;
7497;SDS011;3790;48.806;9.140;2023-04-15T06:10:54;4.70;;;1.90;;
7497;SDS011;3790;48.806;9.140;2023-04-15T06:15:55;4.73;;;2.20;;
7497;SDS011;3790;48.806;9.140;2023-04-15T06:20:55;2.17;;;1.40;;
7497;SDS011;3790;48.806;9.140;2023-04-15T06:25:56;3.40;;;1.97;;
7497;SDS011;3790;48.806;9.140;2023-04-15T06:30:56;3.80;;;1.70;;
7497;SDS011;3790;48.806;9.140;2023-04-15T06:35:57;2.80;;;1.70;;
7497;SDS011;3790;48.806;9.140;2023-04-15T06:40:57;7.70;;;2.27;;
7497;SDS011;3790;48.806;9.140;2023-04-15T06:45:58;3.77;;;2.20;;
7497;SDS011;3790;48.806;9.140;2023-04-15T06:50:59;5.37;;;2.70;;
7497;SDS011;3790;48.806;9.140;2023-04-15T06:56:00;7.30;;;3.67;;
7497;SDS011;3790;48.806;9.140;2023-04-15T07:01:01;4.80;;;2.90;;
7497;SDS011;3790;48.806;9.140;2023-04-15T07:06:02;5.60;;;2.77;;
7497;SDS011;3790;48.806;9.140;2023-04-15T07:11:05;4.33;;;3.03;;
7497;SDS011;3790;48.806;9.140;2023-04-15T07:16:06;10.17;;;6.43;;
7497;SDS011;3790;48.806;9.140;2023-04-15T07:21:07;4.30;;;2.43;;
7497;SDS011;3790;48.806;9.140;2023-04-15T07:26:08;5.97;;;2.80;;
7497;SDS011;3790;48.806;9.140;2023-04-15T07:31:10;11.97;;;3.00;;
7497;SDS011;3790;48.806;9.140;2023-04-15T07:36:10;4.43;;;2.30;;
7497;SDS011;3790;48.806;9.140;2023-04-15T07:41:12;5.53;;;2.50;;
7497;SDS011;3790;48.806;9.140;2023-04-15T07:46:12;4.17;;;1.87;;
7497;SDS011;3790;48.806;9.140;2023-04-15T07:51:13;4.23;;;1.90;;
7497;SDS011;3790;48.806;9.140;2023-04-15T07:56:14;3.97;;;1.67;;
7497;SDS011;3790;48.806;9.140;2023-04-15T08:01:14;2.17;;;1.20;;
7497;SDS011;3790;48.806;9.140;2023-04-15T08:06:15;4.57;;;2.27;;
7497;SDS011;3790;48.806;9.140;2023-04-15T08:11:16;4.30;;;1.67;;
7497;SDS011;3790;48.806;9.140;2023-04-15T08:16:20;2.53;;;1.20;;
7497;SDS011;3790;48.806;9.140;2023-04-15T08:21:23;12.60;;;1.90;;
7497;SDS011;3790;48.806;9.140;2023-04-15T08:26:24;5.23;;;1.67;;
7497;SDS011;3790;48.806;9.140;2023-04-15T08:31:25;2.77;;;1.43;;
7497;SDS011;3790;48.806;9.140;2023-04-15T08:36:28;2.97;;;1.47;;
7497;SDS011;3790;48.806;9.140;2023-04-15T08:41:33;2.23;;;1.40;;
7497;SDS011;3790;48.806;9.140;2023-04-15T08:46:40;3.03;;;1.40;;
7497;SDS011;3790;48.806;9.140;2023-04-15T08:51:41;5.10;;;1.80;;
7497;SDS011;3790;48.806;9.140;2023-04-15T08:56:42;3.30;;;1.70;;
7497;SDS011;3790;48.806;9.140;2023-04-15T09:01:43;5.90;;;1.55;;
7497;SDS011;3790;48.806;9.140;2023-04-15T09:06:44;3.25;;;1.40;;
7497;SDS011;3790;48.806;9.140;2023-04-15T09:11:46;3.45;;;1.77;;
7497;SDS011;3790;48.806;9.140;2023-04-15T09:16:55;2.70;;;1.13;;
7497;SDS011;3790;48.806;9.140;2023-04-15T09:21:58;2.88;;;1.20;;
7497;SDS011;3790;48.806;9.140;2023-04-15T09:26:58;2.17;;;1.17;;
7497;SDS011;3790;48.806;9.140;2023-04-15T09:32:09;3.00;;;1.55;;
7497;SDS011;3790;48.806;9.140;2023-04-15T09:37:11;2.83;;;1.02;;
7497;SDS011;3790;48.806;9.140;2023-04-15T09:42:14;2.83;;;1.40;;
7497;SDS011;3790;48.806;9.140;2023-04-15T09:47:28;2.92;;;1.40;;
7497;SDS011;3790;48.806;9.140;2023-04-15T09:52:30;2.58;;;1.42;;
7497;SDS011;3790;48.806;9.140;2023-04-15T09:57:34;4.15;;;1.40;;
7497;SDS011;3790;48.806;9.140;2023-04-15T10:02:36;2.13;;;1.23;;
7497;SDS011;3790;48.806;9.140;2023-04-15T10:07:38;2.90;;;1.50;;
7497;SDS011;3790;48.806;9.140;2023-04-15T10:12:42;2.08;;;1.27;;
7497;SDS011;3790;48.806;9.140;2023-04-15T10:17:44;11.57;;;2.03;;
7497;SDS011;3790;48.806;9.140;2023-04-15T10:22:44;3.42;;;1.67;;
7497;SDS011;3790;48.806;9.140;2023-04-15T10:27:45;5.47;;;1.77;;
7497;SDS011;3790;48.806;9.140;2023-04-15T10:32:47;3.60;;;1.40;;
7497;SDS011;3790;48.806;9.140;2023-04-15T10:37:49;2.42;;;1.60;;
7497;SDS011;3790;48.806;9.140;2023-04-15T10:42:49;3.25;;;1.63;;
7497;SDS011;3790;48.806;9.140;2023-04-15T10:47:51;2.33;;;1.30;;
7497;SDS011;3790;48.806;9.140;2023-04-15T10:52:54;3.83;;;1.55;;
7497;SDS011;3790;48.806;9.140;2023-04-15T10:57:59;2.63;;;1.30;;
7497;SDS011;3790;48.806;9.140;2023-04-15T11:03:04;3.90;;;1.77;;
7497;SDS011;3790;48.806;9.140;2023-04-15T11:08:07;3.08;;;1.73;;
7497;SDS011;3790;48.806;9.140;2023-04-15T11:23:43;2.50;;;1.48;;
7497;SDS011;3790;48.806;9.140;2023-04-15T11:28:45;4.20;;;1.90;;
7497;SDS011;3790;48.806;9.140;2023-04-15T11:33:52;6.80;;;2.00;;
7497;SDS011;3790;48.806;9.140;2023-04-15T11:38:58;3.45;;;1.92;;
7497;SDS011;3790;48.806;9.140;2023-04-15T11:43:58;3.13;;;1.85;;
7497;SDS011;3790;48.806;9.140;2023-04-15T11:48:59;4.75;;;1.80;;
7497;SDS011;3790;48.806;9.140;2023-04-15T11:54:00;6.20;;;1.75;;
7497;SDS011;3790;48.806;9.140;2023-04-15T11:59:01;3.25;;;2.00;;
7497;SDS011;3790;48.806;9.140;2023-04-15T12:04:06;3.78;;;1.75;;
7497;SDS011;3790;48.806;9.140;2023-04-15T12:09:11;3.35;;;1.90;;
7497;SDS011;3790;48.806;9.140;2023-04-15T12:14:25;7.40;;;2.13;;
7497;SDS011;3790;48.806;9.140;2023-04-15T12:19:28;4.70;;;1.88;;
7497;SDS011;3790;48.806;9.140;2023-04-15T12:24:41;2.58;;;1.25;;
7497;SDS011;3790;48.806;9.140;2023-04-15T12:29:43;2.72;;;1.55;;
7497;SDS011;3790;48.806;9.140;2023-04-15T12:34:46;3.10;;;1.73;;
7497;SDS011;3790;48.806;9.140;2023-04-15T12:39:50;3.17;;;1.70;;
7497;SDS011;3790;48.806;9.140;2023-04-15T12:44:50;3.10;;;1.80;;
7497;SDS011;3790;48.806;9.140;2023-04-15T12:49:51;2.90;;;1.70;;
7497;SDS011;3790;48.806;9.140;2023-04-15T12:54:52;2.83;;;1.43;;
7497;SDS011;3790;48.806;9.140;2023-04-15T12:59:53;2.07;;;1.37;;
7497;SDS011;3790;48.806;9.140;2023-04-15T13:04:53;5.63;;;1.33;;
7497;SDS011;3790;48.806;9.140;2023-04-15T13:09:54;2.23;;;1.30;;
7497;SDS011;3790;48.806;9.140;2023-04-15T13:14:55;3.30;;;1.40;;
7497;SDS011;3790;48.806;9.140;2023-04-15T13:19:56;2.97;;;1.20;;
7497;SDS011;3790;48.806;9.140;2023-04-15T13:24:59;2.08;;;1.00;;
7497;SDS011;3790;48.806;9.140;2023-04-15T13:29:59;2.40;;;1.27;;
7497;SDS011;3790;48.806;9.140;2023-04-15T13:35:00;2.35;;;1.10;;
7497;SDS011;3790;48.806;9.140;2023-04-15T13:40:01;1.90;;;0.90;;
7497;SDS011;3790;48.806;9.140;2023-04-15T13:45:01;2.13;;;0.90;;
7497;SDS011;3790;48.806;9.140;2023-04-15T13:50:02;1.35;;;0.60;;
7497;SDS011;3790;48.806;9.140;2023-04-15T13:55:03;0.90;;;0.60;;
7497;SDS011;3790;48.806;9.140;2023-04-15T14:00:04;1.80;;;0.88;;
7497;SDS011;3790;48.806;9.140;2023-04-15T14:05:06;2.25;;;1.17;;
7497;SDS011;3790;48.806;9.140;2023-04-15T14:10:07;1.13;;;0.70;;
7497;SDS011;3790;48.806;9.140;2023-04-15T14:15:08;1.47;;;0.73;;
7497;SDS011;3790;48.806;9.140;2023-04-15T14:20:09;1.73;;;0.80;;
7497;SDS011;3790;48.806;9.140;2023-04-15T14:25:09;3.13;;;1.23;;
7497;SDS011;3790;48.806;9.140;2023-04-15T14:30:10;3.00;;;1.20;;
7497;SDS011;3790;48.806;9.140;2023-04-15T14:35:11;2.10;;;0.90;;
7497;SDS011;3790;48.806;9.140;2023-04-15T14:40:11;0.80;;;0.50;;
7497;SDS011;3790;48.806;9.140;2023-04-15T14:45:12;0.90;;;0.50;;
7497;SDS011;3790;48.806;9.140;2023-04-15T14:50:12;1.20;;;0.70;;
7497;SDS011;3790;48.806;9.140;2023-04-15T14:55:13;2.03;;;1.03;;
7497;SDS011;3790;48.806;9.140;2023-04-15T15:03:12;1.50;;;0.73;;
7497;SDS011;3790;48.806;9.140;2023-04-15T15:08:13;4.63;;;1.03;;
7497;SDS011;3790;48.806;9.140;2023-04-15T15:13:14;4.90;;;1.10;;
7497;SDS011;3790;48.806;9.140;2023-04-15T15:18:15;1.33;;;0.90;;
7497;SDS011;3790;48.806;9.140;2023-04-15T15:23:17;4.23;;;1.20;;
7497;SDS011;3790;48.806;9.140;2023-04-15T15:28:18;2.20;;;1.10;;
7497;SDS011;3790;48.806;9.140;2023-04-15T15:33:18;1.40;;;0.80;;
7497;SDS011;3790;48.806;9.140;2023-04-15T15:38:19;2.90;;;1.03;;
7497;SDS011;3790;48.806;9.140;2023-04-15T15:43:21;1.40;;;0.90;;
7497;SDS011;3790;48.806;9.140;2023-04-15T15:48:22;2.03;;;1.00;;
7497;SDS011;3790;48.806;9.140;2023-04-15T15:53:23;2.07;;;1.00;;
7497;SDS011;3790;48.806;9.140;2023-04-15T15:58:24;2.87;;;1.20;;
7497;SDS011;3790;48.806;9.140;2023-04-15T16:03:25;2.63;;;1.00;;
7497;SDS011;3790;48.806;9.140;2023-04-15T16:08:25;2.17;;;1.07;;
7497;SDS011;3790;48.806;9.140;2023-04-15T16:13:26;1.80;;;0.80;;
7497;SDS011;3790;48.806;9.140;2023-04-15T16:18:27;1.50;;;0.93;;
7497;SDS011;3790;48.806;9.140;2023-04-15T16:23:27;2.00;;;0.90;;
7497;SDS011;3790;48.806;9.140;2023-04-15T16:28:28;2.93;;;1.23;;
7497;SDS011;3790;48.806;9.140;2023-04-15T16:33:28;2.10;;;1.07;;
7497;SDS011;3790;48.806;9.140;2023-04-15T16:38:29;1.90;;;1.10;;
7497;SDS011;3790;48.806;9.140;2023-04-15T16:43:30;1.67;;;1.20;;
7497;SDS011;3790;48.806;9.140;2023-04-15T16:48:30;2.97;;;1.20;;
7497;SDS011;3790;48.806;9.140;2023-04-15T16:53:31;2.07;;;1.40;;
7497;SDS011;3790;48.806;9.140;2023-04-15T16:58:31;3.57;;;1.87;;
7497;SDS011;3790;48.806;9.140;2023-04-15T17:03:32;2.57;;;1.63;;
7497;SDS011;3790;48.806;9.140;2023-04-15T17:08:32;3.80;;;2.10;;
7497;SDS011;3790;48.806;9.140;2023-04-15T17:13:33;3.03;;;1.97;;
7497;SDS011;3790;48.806;9.140;2023-04-15T17:18:33;2.40;;;1.53;;
7497;SDS011;3790;48.806;9.140;2023-04-15T17:23:34;2.40;;;1.40;;
7497;SDS011;3790;48.806;9.140;2023-04-15T17:28:35;2.47;;;1.57;;
7497;SDS011;3790;48.806;9.140;2023-04-15T17:33:35;2.63;;;1.77;;
7497;SDS011;3790;48.806;9.140;2023-04-15T17:38:36;2.27;;;1.33;;
7497;SDS011;3790;48.806;9.140;2023-04-15T17:43:36;1.57;;;1.20;;
7497;SDS011;3790;48.806;9.140;2023-04-15T17:48:37;2.23;;;1.57;;
7497;SDS011;3790;48.806;9.140;2023-04-15T17:53:38;2.67;;;1.67;;
7497;SDS011;3790;48.806;9.140;2023-04-15T17:58:38;2.73;;;1.70;;
7497;SDS011;3790;48.806;9.140;2023-04-15T18:03:39;2.50;;;1.60;;
7497;SDS011;3790;48.806;9.140;2023-04-15T18:08:39;2.17;;;1.57;;
7497;SDS011;3790;48.806;9.140;2023-04-15T18:13:40;4.63;;;2.03;;
7497;SDS011;3790;48.806;9.140;2023-04-15T18:18:40;4.47;;;1.60;;
7497;SDS011;3790;48.806;9.140;2023-04-15T18:23:41;3.70;;;1.90;;
7497;SDS011;3790;48.806;9.140;2023-04-15T18:28:41;2.80;;;1.70;;
7497;SDS011;3790;48.806;9.140;2023-04-15T18:33:42;2.90;;;1.80;;
7497;SDS011;3790;48.806;9.140;2023-04-15T18:38:43;2.93;;;1.70;;
7497;SDS011;3790;48.806;9.140;2023-04-15T18:43:44;3.03;;;1.73;;
7497;SDS011;3790;48.806;9.140;2023-04-15T18:48:45;2.53;;;1.47;;
7497;SDS011;3790;48.806;9.140;2023-04-15T18:53:45;2.47;;;1.57;;
7497;SDS011;3790;48.806;9.140;2023-04-15T18:58:46;4.17;;;2.40;;
7497;SDS011;3790;48.806;9.140;2023-04-15T19:03:46;3.23;;;2.07;;
7497;SDS011;3790;48.806;9.140;2023-04-15T19:08:47;4.00;;;2.77;;
7497;SDS011;3790;48.806;9.140;2023-04-15T19:13:47;4.77;;;3.10;;
7497;SDS011;3790;48.806;9.140;2023-04-15T19:18:48;4.73;;;3.77;;
7497;SDS011;3790;48.806;9.140;2023-04-15T19:23:48;6.70;;;4.20;;
7497;SDS011;3790;48.806;9.140;2023-04-15T19:28:49;4.67;;;3.57;;
7497;SDS011;3790;48.806;9.140;2023-04-15T19:33:52;5.60;;;4.97;;
7497;SDS011;3790;48.806;9.140;2023-04-15T19:38:52;5.03;;;4.37;;
7497;SDS011;3790;48.806;9.140;2023-04-15T19:43:53;6.63;;;4.20;;
7497;SDS011;3790;48.806;9.140;2023-04-15T19:48:53;6.37;;;5.60;;
7497;SDS011;3790;48.806;9.140;2023-04-15T19:53:54;7.87;;;5.60;;
7497;SDS011;3790;48.806;9.140;2023-04-15T19:58:55;6.17;;;5.10;;
7497;SDS011;3790;48.806;9.140;2023-04-15T20:03:56;7.27;;;5.27;;
7497;SDS011;3790;48.806;9.140;2023-04-15T20:08:56;6.50;;;5.40;;
7497;SDS011;3790;48.806;9.140;2023-04-15T20:13:57;5.97;;;5.37;;
7497;SDS011;3790;48.806;9.140;2023-04-15T20:18:57;7.30;;;5.40;;
7497;SDS011;3790;48.806;9.140;2023-04-15T20:24:02;6.10;;;5.50;;
7497;SDS011;3790;48.806;9.140;2023-04-15T20:29:03;7.37;;;5.80;;
7497;SDS011;3790;48.806;9.140;2023-04-15T20:34:04;7.33;;;5.73;;
7497;SDS011;3790;48.806;9.140;2023-04-15T20:39:05;7.47;;;6.20;;
7497;SDS011;3790;48.806;9.140;2023-04-15T20:44:05;8.73;;;6.37;;
7497;SDS011;3790;48.806;9.140;2023-04-15T20:49:06;6.80;;;5.67;;
7497;SDS011;3790;48.806;9.140;2023-04-15T20:54:06;7.83;;;5.90;;
7497;SDS011;3790;48.806;9.140;2023-04-15T20:59:07;7.30;;;6.20;;
7497;SDS011;3790;48.806;9.140;2023-04-15T21:04:07;8.17;;;5.97;;
7497;SDS011;3790;48.806;9.140;2023-04-15T21:09:08;9.13;;;6.20;;
7497;SDS011;3790;48.806;9.140;2023-04-15T21:14:08;8.47;;;7.40;;
7497;SDS011;3790;48.806;9.140;2023-04-15T21:19:09;8.17;;;7.47;;
7497;SDS011;3790;48.806;9.140;2023-04-15T21:24:09;9.80;;;8.80;;
7497;SDS011;3790;48.806;9.140;2023-04-15T21:29:10;9.27;;;8.30;;
7497;SDS011;3790;48.806;9.140;2023-04-15T21:34:10;10.83;;;9.20;;
7497;SDS011;3790;48.806;9.140;2023-04-15T21:39:11;11.13;;;8.83;;
7497;SDS011;3790;48.806;9.140;2023-04-15T21:44:12;10.30;;;9.00;;
7497;SDS011;3790;48.806;9.140;2023-04-15T21:49:12;10.33;;;8.73;;
7497;SDS011;3790;48.806;9.140;2023-04-15T21:54:13;10.10;;;9.10;;
7497;SDS011;3790;48.806;9.140;2023-04-15T21:59:13;8.43;;;7.63;;
7497;SDS011;3790;48.806;9.140;2023-04-15T22:04:14;9.73;;;8.77;;
7497;SDS011;3790;48.806;9.140;2023-04-15T22:09:14;10.43;;;9.37;;
7497;SDS011;3790;48.806;9.140;2023-04-15T22:14:15;11.80;;;10.70;;
7497;SDS011;3790;48.806;9.140;2023-04-15T22:19:16;13.27;;;10.70;;
7497;SDS011;3790;48.806;9.140;2023-04-15T22:24:17;12.60;;;11.10;;
7497;SDS011;3790;48.806;9.140;2023-04-15T22:29:17;12.37;;;11.07;;
7497;SDS011;3790;48.806;9.140;2023-04-15T22:34:18;12.47;;;11.27;;
7497;SDS011;3790;48.806;9.140;2023-04-15T22:39:20;14.13;;;12.73;;
7497;SDS011;3790;48.806;9.140;2023-04-15T22:44:20;12.93;;;11.63;;
7497;SDS011;3790;48.806;9.140;2023-04-15T22:49:21;12.63;;;11.27;;
7497;SDS011;3790;48.806;9.140;2023-04-15T22:54:21;11.93;;;10.73;;
7497;SDS011;3790;48.806;9.140;2023-04-15T22:59:23;11.20;;;10.07;;
7497;SDS011;3790;48.806;9.140;2023-04-15T23:04:24;11.17;;;10.00;;
7497;SDS011;3790;48.806;9.140;2023-04-15T23:09:25;11.53;;;9.87;;
7497;SDS011;3790;48.806;9.140;2023-04-15T23:14:26;12.17;;;10.10;;
7497;SDS011;3790;48.806;9.140;2023-04-15T23:19:27;12.03;;;10.83;;
7497;SDS011;3790;48.806;9.140;2023-04-15T23:24:27;13.47;;;11.83;;
7497;SDS011;3790;48.806;9.140;2023-04-15T23:29:27;13.40;;;12.10;;
7497;SDS011;3790;48.806;9.140;2023-04-15T23:34:28;12.70;;;11.20;;
7497;SDS011;3790;48.806;9.140;2023-04-15T23:39:28;14.67;;;11.83;;
7497;SDS011;3790;48.806;9.140;2023-04-15T23:44:29;13.77;;;12.00;;
7497;SDS011;3790;48.806;9.140;2023-04-15T23:49:29;14.90;;;13.17;;
7497;SDS011;3790;48.806;9.140;2023-04-15T23:54:30;13.07;;;11.47;;
